sensor_id;sensor_type;location;lat;lon;timestamp;P1;durP1;ratioP1;P2;durP2;ratioP2
75774;SDS011;64505;51.458;7.556;2023-06-14T00:00:04;8.68;;;3.83;;
75774;SDS011;64505;51.458;7.556;2023-06-14T00:02:07;7.47;;;3.88;;
75774;SDS011;64505;51.458;7.556;2023-06-14T00:04:10;5.60;;;3.50;;
75774;SDS011;64505;51.458;7.556;2023-06-14T00:06:11;8.05;;;3.67;;
75774;SDS011;64505;51.458;7.556;2023-06-14T00:08:13;9.25;;;3.70;;
75774;SDS011;64505;51.458;7.556;2023-06-14T00:10:15;7.05;;;3.60;;
75774;SDS011;64505;51.458;7.556;2023-06-14T00:12:18;6.65;;;3.30;;
75774;SDS011;64505;51.458;7.556;2023-06-14T00:14:19;6.05;;;2.97;;
75774;SDS011;64505;51.458;7.556;2023-06-14T00:16:21;8.40;;;3.33;;
75774;SDS011;64505;51.458;7.556;2023-06-14T00:18:24;6.40;;;3.30;;
75774;SDS011;64505;51.458;7.556;2023-06-14T00:20:26;12.18;;;3.17;;
75774;SDS011;64505;51.458;7.556;2023-06-14T00:22:32;7.15;;;3.42;;
75774;SDS011;64505;51.458;7.556;2023-06-14T00:24:34;5.63;;;3.20;;
75774;SDS011;64505;51.458;7.556;2023-06-14T00:26:35;8.48;;;2.97;;
75774;SDS011;64505;51.458;7.556;2023-06-14T00:28:39;4.88;;;2.85;;
75774;SDS011;64505;51.458;7.556;2023-06-14T00:30:42;9.05;;;3.10;;
75774;SDS011;64505;51.458;7.556;2023-06-14T00:32:45;5.43;;;2.80;;
75774;SDS011;64505;51.458;7.556;2023-06-14T00:34:47;7.90;;;2.67;;
75774;SDS011;64505;51.458;7.556;2023-06-14T00:36:49;5.13;;;2.88;;
75774;SDS011;64505;51.458;7.556;2023-06-14T00:38:50;5.18;;;2.90;;
75774;SDS011;64505;51.458;7.556;2023-06-14T00:40:52;10.57;;;3.25;;
75774;SDS011;64505;51.458;7.556;2023-06-14T00:42:53;7.55;;;3.30;;
75774;SDS011;64505;51.458;7.556;2023-06-14T00:44:55;5.75;;;2.60;;
75774;SDS011;64505;51.458;7.556;2023-06-14T00:46:56;6.25;;;3.00;;
75774;SDS011;64505;51.458;7.556;2023-06-14T00:48:58;6.75;;;3.20;;
75774;SDS011;64505;51.458;7.556;2023-06-14T00:51:02;6.18;;;3.08;;
75774;SDS011;64505;51.458;7.556;2023-06-14T00:53:05;6.90;;;2.95;;
75774;SDS011;64505;51.458;7.556;2023-06-14T00:55:07;8.02;;;3.10;;
75774;SDS011;64505;51.458;7.556;2023-06-14T00:57:09;7.78;;;3.33;;
75774;SDS011;64505;51.458;7.556;2023-06-14T00:59:12;5.70;;;3.50;;
75774;SDS011;64505;51.458;7.556;2023-06-14T01:01:13;6.00;;;3.70;;
75774;SDS011;64505;51.458;7.556;2023-06-14T01:03:15;8.05;;;4.03;;
75774;SDS011;64505;51.458;7.556;2023-06-14T01:05:23;5.90;;;3.45;;
75774;SDS011;64505;51.458;7.556;2023-06-14T01:12:35;5.82;;;3.70;;
75774;SDS011;64505;51.458;7.556;2023-06-14T01:14:45;8.90;;;3.33;;
75774;SDS011;64505;51.458;7.556;2023-06-14T01:16:49;8.15;;;3.90;;
75774;SDS011;64505;51.458;7.556;2023-06-14T01:18:54;5.38;;;3.20;;
75774;SDS011;64505;51.458;7.556;2023-06-14T01:20:57;5.90;;;3.53;;
75774;SDS011;64505;51.458;7.556;2023-06-14T01:22:59;7.15;;;3.45;;
75774;SDS011;64505;51.458;7.556;2023-06-14T01:25:01;6.10;;;3.15;;
75774;SDS011;64505;51.458;7.556;2023-06-14T01:27:02;7.72;;;3.20;;
75774;SDS011;64505;51.458;7.556;2023-06-14T01:29:04;6.28;;;3.33;;
75774;SDS011;64505;51.458;7.556;2023-06-14T01:31:07;5.75;;;3.17;;
75774;SDS011;64505;51.458;7.556;2023-06-14T01:33:09;6.05;;;3.05;;
75774;SDS011;64505;51.458;7.556;2023-06-14T01:35:10;7.40;;;2.97;;
75774;SDS011;64505;51.458;7.556;2023-06-14T01:37:12;7.93;;;2.80;;
75774;SDS011;64505;51.458;7.556;2023-06-14T01:39:14;5.53;;;3.08;;
75774;SDS011;64505;51.458;7.556;2023-06-14T01:41:17;6.18;;;3.20;;
75774;SDS011;64505;51.458;7.556;2023-06-14T01:43:21;5.70;;;3.00;;
75774;SDS011;64505;51.458;7.556;2023-06-14T01:45:23;8.10;;;2.92;;
75774;SDS011;64505;51.458;7.556;2023-06-14T01:47:25;5.60;;;2.83;;
75774;SDS011;64505;51.458;7.556;2023-06-14T01:49:26;5.72;;;3.15;;
75774;SDS011;64505;51.458;7.556;2023-06-14T01:51:28;6.95;;;3.13;;
75774;SDS011;64505;51.458;7.556;2023-06-14T01:53:30;5.57;;;3.17;;
75774;SDS011;64505;51.458;7.556;2023-06-14T01:55:31;6.00;;;2.80;;
75774;SDS011;64505;51.458;7.556;2023-06-14T01:57:38;6.68;;;3.30;;
75774;SDS011;64505;51.458;7.556;2023-06-14T01:59:39;5.18;;;2.80;;
75774;SDS011;64505;51.458;7.556;2023-06-14T02:01:41;8.25;;;2.90;;
75774;SDS011;64505;51.458;7.556;2023-06-14T02:03:42;5.40;;;2.88;;
75774;SDS011;64505;51.458;7.556;2023-06-14T02:05:46;5.85;;;2.90;;
75774;SDS011;64505;51.458;7.556;2023-06-14T02:07:47;5.05;;;2.90;;
75774;SDS011;64505;51.458;7.556;2023-06-14T02:09:49;5.40;;;3.05;;
75774;SDS011;64505;51.458;7.556;2023-06-14T02:11:50;7.70;;;2.90;;
75774;SDS011;64505;51.458;7.556;2023-06-14T02:13:52;5.32;;;2.92;;
75774;SDS011;64505;51.458;7.556;2023-06-14T02:15:53;7.13;;;3.25;;
75774;SDS011;64505;51.458;7.556;2023-06-14T02:17:56;7.05;;;2.60;;
75774;SDS011;64505;51.458;7.556;2023-06-14T02:19:57;5.05;;;2.92;;
75774;SDS011;64505;51.458;7.556;2023-06-14T02:21:59;4.60;;;2.78;;
75774;SDS011;64505;51.458;7.556;2023-06-14T02:24:00;6.00;;;3.15;;
75774;SDS011;64505;51.458;7.556;2023-06-14T02:26:03;5.25;;;2.60;;
75774;SDS011;64505;51.458;7.556;2023-06-14T02:28:04;6.57;;;2.90;;
75774;SDS011;64505;51.458;7.556;2023-06-14T02:30:06;6.05;;;3.20;;
75774;SDS011;64505;51.458;7.556;2023-06-14T02:32:08;4.88;;;2.67;;
75774;SDS011;64505;51.458;7.556;2023-06-14T02:34:10;5.60;;;2.60;;
75774;SDS011;64505;51.458;7.556;2023-06-14T02:36:11;5.55;;;2.92;;
75774;SDS011;64505;51.458;7.556;2023-06-14T02:38:12;6.65;;;2.97;;
75774;SDS011;64505;51.458;7.556;2023-06-14T02:40:14;5.97;;;2.72;;
75774;SDS011;64505;51.458;7.556;2023-06-14T02:42:16;5.80;;;3.15;;
75774;SDS011;64505;51.458;7.556;2023-06-14T02:44:18;6.18;;;3.00;;
75774;SDS011;64505;51.458;7.556;2023-06-14T02:46:20;7.63;;;3.13;;
75774;SDS011;64505;51.458;7.556;2023-06-14T02:48:21;9.63;;;3.22;;
75774;SDS011;64505;51.458;7.556;2023-06-14T02:50:23;4.75;;;2.67;;
75774;SDS011;64505;51.458;7.556;2023-06-14T02:52:25;8.90;;;3.13;;
75774;SDS011;64505;51.458;7.556;2023-06-14T02:54:27;6.68;;;2.85;;
75774;SDS011;64505;51.458;7.556;2023-06-14T02:56:28;7.50;;;2.80;;
75774;SDS011;64505;51.458;7.556;2023-06-14T02:58:30;7.65;;;2.95;;
75774;SDS011;64505;51.458;7.556;2023-06-14T03:00:32;4.63;;;2.83;;
75774;SDS011;64505;51.458;7.556;2023-06-14T03:02:33;4.85;;;2.60;;
75774;SDS011;64505;51.458;7.556;2023-06-14T03:04:35;4.65;;;2.80;;
75774;SDS011;64505;51.458;7.556;2023-06-14T03:06:38;6.70;;;3.10;;
75774;SDS011;64505;51.458;7.556;2023-06-14T03:08:41;4.97;;;3.10;;
75774;SDS011;64505;51.458;7.556;2023-06-14T03:10:43;5.80;;;2.80;;
75774;SDS011;64505;51.458;7.556;2023-06-14T03:12:44;8.48;;;3.20;;
75774;SDS011;64505;51.458;7.556;2023-06-14T03:14:46;5.88;;;2.95;;
75774;SDS011;64505;51.458;7.556;2023-06-14T03:16:48;5.28;;;2.97;;
75774;SDS011;64505;51.458;7.556;2023-06-14T03:18:51;5.78;;;2.42;;
75774;SDS011;64505;51.458;7.556;2023-06-14T03:20:53;7.32;;;2.60;;
75774;SDS011;64505;51.458;7.556;2023-06-14T03:22:55;6.80;;;3.00;;
75774;SDS011;64505;51.458;7.556;2023-06-14T03:24:56;6.75;;;2.75;;
75774;SDS011;64505;51.458;7.556;2023-06-14T03:26:58;4.82;;;2.53;;
75774;SDS011;64505;51.458;7.556;2023-06-14T03:28:59;6.95;;;3.20;;
75774;SDS011;64505;51.458;7.556;2023-06-14T03:31:03;4.80;;;2.63;;
75774;SDS011;64505;51.458;7.556;2023-06-14T03:33:05;5.20;;;2.50;;
75774;SDS011;64505;51.458;7.556;2023-06-14T03:35:06;6.80;;;2.88;;
75774;SDS011;64505;51.458;7.556;2023-06-14T03:37:08;7.38;;;2.53;;
75774;SDS011;64505;51.458;7.556;2023-06-14T03:39:09;5.60;;;2.50;;
75774;SDS011;64505;51.458;7.556;2023-06-14T03:41:11;4.88;;;2.45;;
75774;SDS011;64505;51.458;7.556;2023-06-14T03:43:12;6.30;;;2.80;;
75774;SDS011;64505;51.458;7.556;2023-06-14T03:45:14;4.85;;;2.63;;
75774;SDS011;64505;51.458;7.556;2023-06-14T03:47:15;7.95;;;3.25;;
75774;SDS011;64505;51.458;7.556;2023-06-14T03:49:17;5.18;;;2.65;;
75774;SDS011;64505;51.458;7.556;2023-06-14T03:51:18;7.47;;;3.10;;
75774;SDS011;64505;51.458;7.556;2023-06-14T03:53:20;5.28;;;3.00;;
75774;SDS011;64505;51.458;7.556;2023-06-14T03:55:24;7.03;;;2.80;;
75774;SDS011;64505;51.458;7.556;2023-06-14T03:57:31;6.10;;;2.70;;
75774;SDS011;64505;51.458;7.556;2023-06-14T03:59:33;5.07;;;2.45;;
75774;SDS011;64505;51.458;7.556;2023-06-14T04:01:34;7.47;;;2.80;;
75774;SDS011;64505;51.458;7.556;2023-06-14T04:03:37;5.13;;;2.70;;
75774;SDS011;64505;51.458;7.556;2023-06-14T04:05:39;6.10;;;2.85;;
75774;SDS011;64505;51.458;7.556;2023-06-14T04:07:44;5.97;;;2.80;;
75774;SDS011;64505;51.458;7.556;2023-06-14T04:09:46;5.65;;;2.55;;
75774;SDS011;64505;51.458;7.556;2023-06-14T04:11:48;5.28;;;2.60;;
75774;SDS011;64505;51.458;7.556;2023-06-14T04:13:49;6.15;;;2.50;;
75774;SDS011;64505;51.458;7.556;2023-06-14T04:15:51;5.82;;;2.72;;
75774;SDS011;64505;51.458;7.556;2023-06-14T04:17:52;5.55;;;2.85;;
75774;SDS011;64505;51.458;7.556;2023-06-14T04:19:58;6.43;;;2.45;;
75774;SDS011;64505;51.458;7.556;2023-06-14T04:22:01;5.03;;;2.72;;
75774;SDS011;64505;51.458;7.556;2023-06-14T04:24:03;4.50;;;2.22;;
75774;SDS011;64505;51.458;7.556;2023-06-14T04:26:05;5.30;;;2.50;;
75774;SDS011;64505;51.458;7.556;2023-06-14T04:28:06;4.70;;;2.70;;
75774;SDS011;64505;51.458;7.556;2023-06-14T04:30:12;6.13;;;2.72;;
75774;SDS011;64505;51.458;7.556;2023-06-14T04:32:14;8.20;;;2.67;;
75774;SDS011;64505;51.458;7.556;2023-06-14T04:34:16;8.60;;;2.92;;
75774;SDS011;64505;51.458;7.556;2023-06-14T04:36:18;7.22;;;3.05;;
75774;SDS011;64505;51.458;7.556;2023-06-14T04:38:20;5.60;;;3.08;;
75774;SDS011;64505;51.458;7.556;2023-06-14T04:40:26;8.25;;;3.47;;
75774;SDS011;64505;51.458;7.556;2023-06-14T04:42:27;5.30;;;3.33;;
75774;SDS011;64505;51.458;7.556;2023-06-14T04:44:32;8.55;;;3.03;;
75774;SDS011;64505;51.458;7.556;2023-06-14T04:46:33;8.15;;;3.25;;
75774;SDS011;64505;51.458;7.556;2023-06-14T04:48:47;7.97;;;3.28;;
75774;SDS011;64505;51.458;7.556;2023-06-14T04:50:49;7.25;;;3.30;;
75774;SDS011;64505;51.458;7.556;2023-06-14T04:52:54;7.45;;;3.10;;
75774;SDS011;64505;51.458;7.556;2023-06-14T04:54:56;9.02;;;3.28;;
75774;SDS011;64505;51.458;7.556;2023-06-14T04:56:57;4.63;;;2.80;;
75774;SDS011;64505;51.458;7.556;2023-06-14T04:58:59;7.00;;;3.17;;
75774;SDS011;64505;51.458;7.556;2023-06-14T05:01:00;5.55;;;2.67;;
75774;SDS011;64505;51.458;7.556;2023-06-14T05:03:03;6.28;;;3.13;;
75774;SDS011;64505;51.458;7.556;2023-06-14T05:05:07;6.35;;;3.10;;
75774;SDS011;64505;51.458;7.556;2023-06-14T05:07:08;6.30;;;3.13;;
75774;SDS011;64505;51.458;7.556;2023-06-14T05:09:11;5.85;;;3.13;;
75774;SDS011;64505;51.458;7.556;2023-06-14T05:11:14;6.22;;;3.28;;
75774;SDS011;64505;51.458;7.556;2023-06-14T05:13:15;4.80;;;2.95;;
75774;SDS011;64505;51.458;7.556;2023-06-14T05:15:17;5.00;;;2.78;;
75774;SDS011;64505;51.458;7.556;2023-06-14T05:17:18;8.38;;;3.78;;
75774;SDS011;64505;51.458;7.556;2023-06-14T05:19:21;6.72;;;3.03;;
75774;SDS011;64505;51.458;7.556;2023-06-14T05:21:23;10.05;;;2.90;;
75774;SDS011;64505;51.458;7.556;2023-06-14T05:23:24;5.22;;;2.78;;
75774;SDS011;64505;51.458;7.556;2023-06-14T05:25:26;5.57;;;2.63;;
75774;SDS011;64505;51.458;7.556;2023-06-14T05:27:29;7.20;;;2.95;;
75774;SDS011;64505;51.458;7.556;2023-06-14T05:29:30;4.88;;;2.72;;
75774;SDS011;64505;51.458;7.556;2023-06-14T05:31:32;5.65;;;3.17;;
75774;SDS011;64505;51.458;7.556;2023-06-14T05:33:34;5.45;;;2.92;;
75774;SDS011;64505;51.458;7.556;2023-06-14T05:35:35;5.85;;;2.75;;
75774;SDS011;64505;51.458;7.556;2023-06-14T05:37:37;7.20;;;2.78;;
75774;SDS011;64505;51.458;7.556;2023-06-14T05:39:38;8.95;;;2.60;;
75774;SDS011;64505;51.458;7.556;2023-06-14T05:41:40;7.30;;;3.10;;
75774;SDS011;64505;51.458;7.556;2023-06-14T05:43:41;4.70;;;2.50;;
75774;SDS011;64505;51.458;7.556;2023-06-14T05:45:43;5.32;;;3.05;;
75774;SDS011;64505;51.458;7.556;2023-06-14T05:47:44;6.07;;;2.90;;
75774;SDS011;64505;51.458;7.556;2023-06-14T05:49:46;7.95;;;3.08;;
75774;SDS011;64505;51.458;7.556;2023-06-14T05:51:47;5.05;;;2.90;;
75774;SDS011;64505;51.458;7.556;2023-06-14T05:53:49;5.22;;;2.80;;
75774;SDS011;64505;51.458;7.556;2023-06-14T05:55:51;6.47;;;2.70;;
75774;SDS011;64505;51.458;7.556;2023-06-14T05:57:56;6.43;;;2.80;;
75774;SDS011;64505;51.458;7.556;2023-06-14T05:59:57;6.35;;;2.90;;
75774;SDS011;64505;51.458;7.556;2023-06-14T06:01:59;8.07;;;2.55;;
75774;SDS011;64505;51.458;7.556;2023-06-14T06:04:01;5.20;;;2.53;;
75774;SDS011;64505;51.458;7.556;2023-06-14T06:06:03;6.18;;;2.35;;
75774;SDS011;64505;51.458;7.556;2023-06-14T06:08:06;5.32;;;2.80;;
75774;SDS011;64505;51.458;7.556;2023-06-14T06:10:07;5.13;;;2.45;;
75774;SDS011;64505;51.458;7.556;2023-06-14T06:12:09;5.28;;;2.40;;
75774;SDS011;64505;51.458;7.556;2023-06-14T06:14:11;5.90;;;2.75;;
75774;SDS011;64505;51.458;7.556;2023-06-14T06:16:12;5.18;;;2.20;;
75774;SDS011;64505;51.458;7.556;2023-06-14T06:18:14;5.85;;;2.70;;
75774;SDS011;64505;51.458;7.556;2023-06-14T06:20:16;4.15;;;2.28;;
75774;SDS011;64505;51.458;7.556;2023-06-14T06:22:18;5.93;;;2.20;;
75774;SDS011;64505;51.458;7.556;2023-06-14T06:24:20;4.40;;;2.30;;
75774;SDS011;64505;51.458;7.556;2023-06-14T06:26:21;7.38;;;2.17;;
75774;SDS011;64505;51.458;7.556;2023-06-14T06:28:23;6.45;;;2.20;;
75774;SDS011;64505;51.458;7.556;2023-06-14T06:30:25;7.07;;;2.58;;
75774;SDS011;64505;51.458;7.556;2023-06-14T06:32:27;7.43;;;2.10;;
75774;SDS011;64505;51.458;7.556;2023-06-14T06:34:28;4.50;;;2.30;;
75774;SDS011;64505;51.458;7.556;2023-06-14T06:36:30;5.13;;;2.00;;
75774;SDS011;64505;51.458;7.556;2023-06-14T06:38:32;6.72;;;2.00;;
75774;SDS011;64505;51.458;7.556;2023-06-14T06:40:33;5.00;;;2.35;;
75774;SDS011;64505;51.458;7.556;2023-06-14T06:42:35;5.60;;;2.20;;
75774;SDS011;64505;51.458;7.556;2023-06-14T06:44:41;5.63;;;2.17;;
75774;SDS011;64505;51.458;7.556;2023-06-14T06:46:43;6.05;;;2.00;;
75774;SDS011;64505;51.458;7.556;2023-06-14T06:48:44;5.85;;;2.22;;
75774;SDS011;64505;51.458;7.556;2023-06-14T06:50:46;6.47;;;2.30;;
75774;SDS011;64505;51.458;7.556;2023-06-14T06:52:47;5.40;;;2.13;;
75774;SDS011;64505;51.458;7.556;2023-06-14T06:54:49;5.88;;;2.13;;
75774;SDS011;64505;51.458;7.556;2023-06-14T06:56:51;4.75;;;2.40;;
75774;SDS011;64505;51.458;7.556;2023-06-14T06:58:53;4.97;;;2.05;;
75774;SDS011;64505;51.458;7.556;2023-06-14T07:00:54;6.60;;;2.65;;
75774;SDS011;64505;51.458;7.556;2023-06-14T07:02:56;5.85;;;2.30;;
75774;SDS011;64505;51.458;7.556;2023-06-14T07:04:58;5.13;;;2.30;;
75774;SDS011;64505;51.458;7.556;2023-06-14T07:06:59;7.57;;;2.75;;
75774;SDS011;64505;51.458;7.556;2023-06-14T07:09:01;6.85;;;1.73;;
75774;SDS011;64505;51.458;7.556;2023-06-14T07:11:05;3.20;;;1.85;;
75774;SDS011;64505;51.458;7.556;2023-06-14T07:13:07;5.82;;;2.50;;
75774;SDS011;64505;51.458;7.556;2023-06-14T07:15:10;5.80;;;2.10;;
75774;SDS011;64505;51.458;7.556;2023-06-14T07:17:12;4.78;;;2.10;;
75774;SDS011;64505;51.458;7.556;2023-06-14T07:19:14;4.28;;;1.80;;
75774;SDS011;64505;51.458;7.556;2023-06-14T07:21:16;5.10;;;1.85;;
75774;SDS011;64505;51.458;7.556;2023-06-14T07:23:17;5.10;;;1.70;;
75774;SDS011;64505;51.458;7.556;2023-06-14T07:25:19;6.15;;;2.22;;
75774;SDS011;64505;51.458;7.556;2023-06-14T07:27:21;7.65;;;2.35;;
75774;SDS011;64505;51.458;7.556;2023-06-14T07:29:23;3.95;;;1.80;;
75774;SDS011;64505;51.458;7.556;2023-06-14T07:31:24;5.90;;;1.75;;
75774;SDS011;64505;51.458;7.556;2023-06-14T07:33:25;2.70;;;1.60;;
75774;SDS011;64505;51.458;7.556;2023-06-14T07:35:27;3.80;;;1.63;;
75774;SDS011;64505;51.458;7.556;2023-06-14T07:37:29;4.30;;;1.70;;
75774;SDS011;64505;51.458;7.556;2023-06-14T07:39:31;8.00;;;1.98;;
75774;SDS011;64505;51.458;7.556;2023-06-14T07:41:32;4.45;;;1.80;;
75774;SDS011;64505;51.458;7.556;2023-06-14T07:43:34;3.83;;;2.00;;
75774;SDS011;64505;51.458;7.556;2023-06-14T07:45:36;5.30;;;1.83;;
75774;SDS011;64505;51.458;7.556;2023-06-14T07:47:38;3.75;;;1.42;;
75774;SDS011;64505;51.458;7.556;2023-06-14T07:49:40;4.28;;;1.52;;
75774;SDS011;64505;51.458;7.556;2023-06-14T07:51:42;3.50;;;1.38;;
75774;SDS011;64505;51.458;7.556;2023-06-14T07:53:45;3.92;;;1.70;;
75774;SDS011;64505;51.458;7.556;2023-06-14T07:55:47;5.32;;;1.70;;
75774;SDS011;64505;51.458;7.556;2023-06-14T07:57:54;3.80;;;1.67;;
75774;SDS011;64505;51.458;7.556;2023-06-14T07:59:55;3.58;;;1.33;;
75774;SDS011;64505;51.458;7.556;2023-06-14T08:01:57;4.65;;;1.27;;
75774;SDS011;64505;51.458;7.556;2023-06-14T08:03:58;3.92;;;1.23;;
75774;SDS011;64505;51.458;7.556;2023-06-14T08:06:00;2.60;;;1.10;;
75774;SDS011;64505;51.458;7.556;2023-06-14T08:08:02;4.68;;;1.50;;
75774;SDS011;64505;51.458;7.556;2023-06-14T08:10:04;2.95;;;1.48;;
75774;SDS011;64505;51.458;7.556;2023-06-14T08:12:06;4.40;;;1.50;;
75774;SDS011;64505;51.458;7.556;2023-06-14T08:14:10;3.65;;;1.45;;
75774;SDS011;64505;51.458;7.556;2023-06-14T08:16:12;2.97;;;1.40;;
75774;SDS011;64505;51.458;7.556;2023-06-14T08:18:14;5.20;;;1.38;;
75774;SDS011;64505;51.458;7.556;2023-06-14T08:20:16;5.63;;;1.40;;
75774;SDS011;64505;51.458;7.556;2023-06-14T08:22:18;5.53;;;1.42;;
75774;SDS011;64505;51.458;7.556;2023-06-14T08:24:21;6.45;;;2.22;;
75774;SDS011;64505;51.458;7.556;2023-06-14T08:26:25;5.55;;;1.55;;
75774;SDS011;64505;51.458;7.556;2023-06-14T08:28:30;3.53;;;1.10;;
75774;SDS011;64505;51.458;7.556;2023-06-14T08:30:31;3.03;;;1.02;;
75774;SDS011;64505;51.458;7.556;2023-06-14T08:32:33;4.32;;;1.10;;
75774;SDS011;64505;51.458;7.556;2023-06-14T08:34:34;2.20;;;1.00;;
75774;SDS011;64505;51.458;7.556;2023-06-14T08:36:36;3.55;;;1.05;;
75774;SDS011;64505;51.458;7.556;2023-06-14T08:38:37;3.63;;;1.30;;
75774;SDS011;64505;51.458;7.556;2023-06-14T08:40:39;6.32;;;1.73;;
75774;SDS011;64505;51.458;7.556;2023-06-14T08:42:43;4.00;;;1.40;;
75774;SDS011;64505;51.458;7.556;2023-06-14T08:44:45;1.75;;;1.10;;
75774;SDS011;64505;51.458;7.556;2023-06-14T08:46:47;8.77;;;2.60;;
75774;SDS011;64505;51.458;7.556;2023-06-14T08:48:49;2.72;;;1.20;;
75774;SDS011;64505;51.458;7.556;2023-06-14T08:50:51;27.63;;;6.55;;
75774;SDS011;64505;51.458;7.556;2023-06-14T08:53:02;5.32;;;1.38;;
75774;SDS011;64505;51.458;7.556;2023-06-14T08:55:06;3.55;;;1.30;;
75774;SDS011;64505;51.458;7.556;2023-06-14T08:57:11;2.33;;;1.30;;
75774;SDS011;64505;51.458;7.556;2023-06-14T09:01:19;3.65;;;1.02;;
75774;SDS011;64505;51.458;7.556;2023-06-14T09:03:23;3.42;;;1.30;;
75774;SDS011;64505;51.458;7.556;2023-06-14T09:05:30;3.22;;;1.20;;
75774;SDS011;64505;51.458;7.556;2023-06-14T09:07:32;3.35;;;1.15;;
75774;SDS011;64505;51.458;7.556;2023-06-14T09:09:35;2.15;;;1.10;;
75774;SDS011;64505;51.458;7.556;2023-06-14T09:11:41;3.67;;;1.23;;
75774;SDS011;64505;51.458;7.556;2023-06-14T09:13:43;3.10;;;1.50;;
75774;SDS011;64505;51.458;7.556;2023-06-14T09:15:44;2.80;;;1.30;;
75774;SDS011;64505;51.458;7.556;2023-06-14T09:17:46;2.50;;;1.20;;
75774;SDS011;64505;51.458;7.556;2023-06-14T09:19:48;3.55;;;1.50;;
75774;SDS011;64505;51.458;7.556;2023-06-14T09:21:50;5.43;;;1.55;;
75774;SDS011;64505;51.458;7.556;2023-06-14T09:23:54;3.95;;;1.40;;
75774;SDS011;64505;51.458;7.556;2023-06-14T09:25:55;4.22;;;1.23;;
75774;SDS011;64505;51.458;7.556;2023-06-14T09:27:57;2.75;;;1.13;;
75774;SDS011;64505;51.458;7.556;2023-06-14T09:29:58;4.50;;;1.30;;
75774;SDS011;64505;51.458;7.556;2023-06-14T09:32:00;4.07;;;1.10;;
75774;SDS011;64505;51.458;7.556;2023-06-14T09:34:02;3.17;;;1.35;;
75774;SDS011;64505;51.458;7.556;2023-06-14T09:36:04;2.10;;;1.00;;
75774;SDS011;64505;51.458;7.556;2023-06-14T09:38:10;4.53;;;1.20;;
75774;SDS011;64505;51.458;7.556;2023-06-14T09:40:13;2.63;;;1.02;;
75774;SDS011;64505;51.458;7.556;2023-06-14T09:42:21;1.98;;;0.85;;
75774;SDS011;64505;51.458;7.556;2023-06-14T09:44:25;2.97;;;1.20;;
75774;SDS011;64505;51.458;7.556;2023-06-14T09:46:29;3.17;;;1.15;;
75774;SDS011;64505;51.458;7.556;2023-06-14T09:48:31;2.75;;;0.95;;
75774;SDS011;64505;51.458;7.556;2023-06-14T09:50:33;4.05;;;1.13;;
75774;SDS011;64505;51.458;7.556;2023-06-14T09:52:35;2.63;;;1.20;;
75774;SDS011;64505;51.458;7.556;2023-06-14T09:54:45;2.53;;;1.02;;
75774;SDS011;64505;51.458;7.556;2023-06-14T09:56:48;2.60;;;1.60;;
75774;SDS011;64505;51.458;7.556;2023-06-14T09:58:54;3.25;;;1.10;;
75774;SDS011;64505;51.458;7.556;2023-06-14T10:01:08;2.95;;;1.00;;
75774;SDS011;64505;51.458;7.556;2023-06-14T10:03:14;3.63;;;1.05;;
75774;SDS011;64505;51.458;7.556;2023-06-14T10:05:17;4.13;;;1.00;;
75774;SDS011;64505;51.458;7.556;2023-06-14T10:07:21;2.33;;;1.05;;
75774;SDS011;64505;51.458;7.556;2023-06-14T10:09:24;3.08;;;1.00;;
75774;SDS011;64505;51.458;7.556;2023-06-14T10:11:27;3.83;;;1.10;;
75774;SDS011;64505;51.458;7.556;2023-06-14T10:13:28;2.90;;;1.38;;
75774;SDS011;64505;51.458;7.556;2023-06-14T10:17:56;2.72;;;0.82;;
75774;SDS011;64505;51.458;7.556;2023-06-14T10:22:35;3.70;;;1.08;;
75774;SDS011;64505;51.458;7.556;2023-06-14T10:24:45;2.45;;;1.20;;
75774;SDS011;64505;51.458;7.556;2023-06-14T10:26:50;1.45;;;0.88;;
75774;SDS011;64505;51.458;7.556;2023-06-14T10:28:56;3.10;;;1.45;;
75774;SDS011;64505;51.458;7.556;2023-06-14T10:33:09;5.10;;;1.00;;
75774;SDS011;64505;51.458;7.556;2023-06-14T10:35:15;3.47;;;1.00;;
75774;SDS011;64505;51.458;7.556;2023-06-14T10:37:18;2.50;;;1.08;;
75774;SDS011;64505;51.458;7.556;2023-06-14T10:39:19;5.45;;;1.17;;
75774;SDS011;64505;51.458;7.556;2023-06-14T10:41:21;2.45;;;1.00;;
75774;SDS011;64505;51.458;7.556;2023-06-14T10:43:23;2.80;;;1.15;;
75774;SDS011;64505;51.458;7.556;2023-06-14T10:45:25;3.67;;;1.30;;
75774;SDS011;64505;51.458;7.556;2023-06-14T10:47:33;4.25;;;1.20;;
75774;SDS011;64505;51.458;7.556;2023-06-14T10:49:41;4.40;;;1.13;;
75774;SDS011;64505;51.458;7.556;2023-06-14T10:51:50;4.88;;;1.08;;
75774;SDS011;64505;51.458;7.556;2023-06-14T10:53:53;4.20;;;1.85;;
75774;SDS011;64505;51.458;7.556;2023-06-14T10:56:05;3.20;;;1.10;;
75774;SDS011;64505;51.458;7.556;2023-06-14T10:58:08;2.70;;;1.30;;
75774;SDS011;64505;51.458;7.556;2023-06-14T11:00:09;5.63;;;1.40;;
75774;SDS011;64505;51.458;7.556;2023-06-14T11:04:21;2.45;;;1.30;;
75774;SDS011;64505;51.458;7.556;2023-06-14T11:06:29;2.83;;;1.20;;
75774;SDS011;64505;51.458;7.556;2023-06-14T11:09:02;3.60;;;1.35;;
75774;SDS011;64505;51.458;7.556;2023-06-14T11:11:21;4.35;;;1.50;;
75774;SDS011;64505;51.458;7.556;2023-06-14T11:13:25;5.32;;;1.55;;
75774;SDS011;64505;51.458;7.556;2023-06-14T11:15:28;3.65;;;1.80;;
75774;SDS011;64505;51.458;7.556;2023-06-14T11:17:33;3.25;;;1.52;;
75774;SDS011;64505;51.458;7.556;2023-06-14T11:19:35;4.30;;;1.60;;
75774;SDS011;64505;51.458;7.556;2023-06-14T11:21:39;5.20;;;1.70;;
75774;SDS011;64505;51.458;7.556;2023-06-14T11:23:41;2.80;;;1.50;;
75774;SDS011;64505;51.458;7.556;2023-06-14T11:25:43;4.75;;;1.50;;
75774;SDS011;64505;51.458;7.556;2023-06-14T11:27:51;2.63;;;1.40;;
75774;SDS011;64505;51.458;7.556;2023-06-14T11:29:52;4.78;;;1.48;;
75774;SDS011;64505;51.458;7.556;2023-06-14T11:31:54;3.38;;;1.65;;
75774;SDS011;64505;51.458;7.556;2023-06-14T11:33:56;3.55;;;1.45;;
75774;SDS011;64505;51.458;7.556;2023-06-14T11:36:01;2.67;;;1.52;;
75774;SDS011;64505;51.458;7.556;2023-06-14T11:38:03;2.65;;;1.52;;
75774;SDS011;64505;51.458;7.556;2023-06-14T11:40:08;3.83;;;1.65;;
75774;SDS011;64505;51.458;7.556;2023-06-14T11:42:17;4.72;;;1.77;;
75774;SDS011;64505;51.458;7.556;2023-06-14T11:44:19;3.53;;;1.60;;
75774;SDS011;64505;51.458;7.556;2023-06-14T11:46:20;4.70;;;1.55;;
75774;SDS011;64505;51.458;7.556;2023-06-14T11:50:59;3.40;;;1.50;;
75774;SDS011;64505;51.458;7.556;2023-06-14T11:53:00;3.50;;;1.52;;
75774;SDS011;64505;51.458;7.556;2023-06-14T11:55:08;3.45;;;1.80;;
75774;SDS011;64505;51.458;7.556;2023-06-14T11:57:09;3.70;;;2.00;;
75774;SDS011;64505;51.458;7.556;2023-06-14T11:59:12;4.45;;;1.95;;
75774;SDS011;64505;51.458;7.556;2023-06-14T12:01:16;3.00;;;1.40;;
75774;SDS011;64505;51.458;7.556;2023-06-14T12:03:22;3.05;;;1.45;;
75774;SDS011;64505;51.458;7.556;2023-06-14T12:05:25;2.90;;;1.50;;
75774;SDS011;64505;51.458;7.556;2023-06-14T12:07:27;2.95;;;1.48;;
75774;SDS011;64505;51.458;7.556;2023-06-14T12:09:32;3.33;;;1.40;;
75774;SDS011;64505;51.458;7.556;2023-06-14T12:11:35;3.92;;;1.40;;
75774;SDS011;64505;51.458;7.556;2023-06-14T12:13:38;3.33;;;1.35;;
75774;SDS011;64505;51.458;7.556;2023-06-14T12:15:41;3.72;;;1.52;;
75774;SDS011;64505;51.458;7.556;2023-06-14T12:17:42;3.08;;;1.52;;
75774;SDS011;64505;51.458;7.556;2023-06-14T12:19:45;3.28;;;1.77;;
75774;SDS011;64505;51.458;7.556;2023-06-14T12:21:47;3.65;;;1.73;;
75774;SDS011;64505;51.458;7.556;2023-06-14T12:23:53;2.97;;;1.60;;
75774;SDS011;64505;51.458;7.556;2023-06-14T12:25:54;5.75;;;1.80;;
75774;SDS011;64505;51.458;7.556;2023-06-14T12:28:08;5.90;;;1.60;;
75774;SDS011;64505;51.458;7.556;2023-06-14T12:30:11;5.68;;;1.60;;
75774;SDS011;64505;51.458;7.556;2023-06-14T12:32:12;3.90;;;1.48;;
75774;SDS011;64505;51.458;7.556;2023-06-14T12:34:14;3.45;;;1.52;;
75774;SDS011;64505;51.458;7.556;2023-06-14T12:36:16;4.43;;;1.48;;
75774;SDS011;64505;51.458;7.556;2023-06-14T12:38:20;3.47;;;1.40;;